^^
Meteo Knjazevac Station Historical Data
Daily Summary for February 10, 2021 Units:  Both    English   Metric
Daily Weekly Monthly Yearly Custom
  High: Low: Average:
Temperature: 59.6 °F /  15.3 °C 52.3 °F /  11.3 °C 54.9 °F /  12.7 °C
Dew Point: 59 °F /  15 °C 51.1 °F /  10.6 °C 53.6 °F /  12 °C
Humidity: 99% 90% 95%
Wind Speed: 3mph /  4.8km/h - 0.8mph /  1.3km/h
Wind Gust: 5mph /  8km/h - -
Wind- - West
Pressure: 30.05 in /  1017.5 hPa 30.03 in /  1016.8 hPa -
Precipitation: 0.00 in /  0 mm    
Historical Graphs
 
 
Tabular Data for February 10, 2021
Time Temperature Dew Point Pressure Wind Wind Speed Wind Gust Humidity Rainfall Rate (Hourly) solar Conditions
00:00 58.8 °F /  14.9 °C 55.9 °F /  13.3 °C 30.05in /  1017.5hPa WSW 1mph /  1.6km/h 3mph /  4.8km/h 90% 0.00in /  0mm 0 W/m2
00:10 58.3 °F /  14.6 °C 55.4 °F /  13 °C 30.05in /  1017.5hPa NNW 1mph /  1.6km/h 3mph /  4.8km/h 90% 0.00in /  0mm 0 W/m2
00:20 57.9 °F /  14.4 °C 55 °F /  12.8 °C 30.05in /  1017.5hPa West 1mph /  1.6km/h 2mph /  3.2km/h 90% 0.00in /  0mm 0 W/m2
00:30 57.6 °F /  14.2 °C 55 °F /  12.8 °C 30.05in /  1017.5hPa WSW 1mph /  1.6km/h 2mph /  3.2km/h 91% 0.00in /  0mm 0 W/m2
00:40 57.2 °F /  14 °C 54.6 °F /  12.6 °C 30.05in /  1017.5hPa WNW 1mph /  1.6km/h 2mph /  3.2km/h 91% 0.00in /  0mm 0 W/m2
00:50 56.8 °F /  13.8 °C 54.8 °F /  12.7 °C 30.05in /  1017.5hPa NW 1mph /  1.6km/h 3mph /  4.8km/h 93% 0.00in /  0mm 0 W/m2
01:00 56.7 °F /  13.7 °C 54.7 °F /  12.6 °C 30.05in /  1017.5hPa West 1mph /  1.6km/h 2mph /  3.2km/h 93% 0.00in /  0mm 0 W/m2
01:10 56.3 °F /  13.5 °C 54.3 °F /  12.4 °C 30.04in /  1017.2hPa West 2mph /  3.2km/h 5mph /  8km/h 93% 0.00in /  0mm 0 W/m2
01:20 55.8 °F /  13.2 °C 53.8 °F /  12.1 °C 30.04in /  1017.2hPa WSW 3mph /  4.8km/h 5mph /  8km/h 93% 0.00in /  0mm 0 W/m2
01:30 55.6 °F /  13.1 °C 53.9 °F /  12.2 °C 30.04in /  1017.2hPa WNW 1mph /  1.6km/h 5mph /  8km/h 94% 0.00in /  0mm 0 W/m2
01:40 55.5 °F /  13.1 °C 53.8 °F /  12.1 °C 30.04in /  1017.2hPa Calm   2mph /  3.2km/h 94% 0.00in /  0mm 0 W/m2
01:50 55.4 °F /  13 °C 53.7 °F /  12.1 °C 30.04in /  1017.2hPa Calm   2mph /  3.2km/h 94% 0.00in /  0mm 0 W/m2
02:00 55.4 °F /  13 °C 53.7 °F /  12.1 °C 30.04in /  1017.2hPa North 1mph /  1.6km/h 2mph /  3.2km/h 94% 0.00in /  0mm 0 W/m2
02:10 55.4 °F /  13 °C 53.7 °F /  12.1 °C 30.04in /  1017.2hPa NNW 1mph /  1.6km/h 2mph /  3.2km/h 94% 0.00in /  0mm 0 W/m2
02:20 55 °F /  12.8 °C 53.3 °F /  11.8 °C 30.04in /  1017.2hPa WSW 1mph /  1.6km/h 2mph /  3.2km/h 94% 0.00in /  0mm 0 W/m2
02:30 54.9 °F /  12.7 °C 53.2 °F /  11.8 °C 30.04in /  1017.2hPa WNW 2mph /  3.2km/h 3mph /  4.8km/h 94% 0.00in /  0mm 0 W/m2
02:40 55 °F /  12.8 °C 53.6 °F /  12 °C 30.04in /  1017.2hPa Calm   3mph /  4.8km/h 95% 0.00in /  0mm 0 W/m2
02:50 54.8 °F /  12.7 °C 53.1 °F /  11.7 °C 30.04in /  1017.2hPa WSW 1mph /  1.6km/h 3mph /  4.8km/h 94% 0.00in /  0mm 0 W/m2
03:00 54.3 °F /  12.4 °C 52.9 °F /  11.6 °C 30.04in /  1017.2hPa WNW 2mph /  3.2km/h 4mph /  6.4km/h 95% 0.00in /  0mm 0 W/m2
03:10 54.3 °F /  12.4 °C 52.9 °F /  11.6 °C 30.04in /  1017.2hPa WNW 1mph /  1.6km/h 3mph /  4.8km/h 95% 0.00in /  0mm 0 W/m2
03:20 54.1 °F /  12.3 °C 52.7 °F /  11.5 °C 30.04in /  1017.2hPa WSW 1mph /  1.6km/h 2mph /  3.2km/h 95% 0.00in /  0mm 0 W/m2
03:30 53.8 °F /  12.1 °C 52.4 °F /  11.3 °C 30.04in /  1017.2hPa Calm   2mph /  3.2km/h 95% 0.00in /  0mm 0 W/m2
03:40 53.8 °F /  12.1 °C 52.4 °F /  11.3 °C 30.03in /  1016.8hPa WNW 1mph /  1.6km/h 2mph /  3.2km/h 95% 0.00in /  0mm 0 W/m2
03:50 53.6 °F /  12 °C 52.2 °F /  11.2 °C 30.04in /  1017.2hPa Calm   1mph /  1.6km/h 95% 0.00in /  0mm 0 W/m2
04:00 53.4 °F /  11.9 °C 52 °F /  11.1 °C 30.04in /  1017.2hPa West 2mph /  3.2km/h 3mph /  4.8km/h 95% 0.00in /  0mm 0 W/m2
04:10 53.4 °F /  11.9 °C 52.3 °F /  11.3 °C 30.03in /  1016.8hPa NW 1mph /  1.6km/h 3mph /  4.8km/h 96% 0.00in /  0mm 0 W/m2
04:20 53.6 °F /  12 °C 52.5 °F /  11.4 °C 30.04in /  1017.2hPa Calm   2mph /  3.2km/h 96% 0.00in /  0mm 0 W/m2
04:30 53.2 °F /  11.8 °C 51.8 °F /  11 °C 30.04in /  1017.2hPa Calm   1mph /  1.6km/h 95% 0.00in /  0mm 0 W/m2
04:40 52.9 °F /  11.6 °C 51.5 °F /  10.8 °C 30.04in /  1017.2hPa Calm   2mph /  3.2km/h 95% 0.00in /  0mm 0 W/m2
04:50 52.8 °F /  11.6 °C 51.4 °F /  10.8 °C 30.04in /  1017.2hPa Calm   2mph /  3.2km/h 95% 0.00in /  0mm 3 W/m2
05:00 52.5 °F /  11.4 °C 51.1 °F /  10.6 °C 30.04in /  1017.2hPa Calm   1mph /  1.6km/h 95% 0.00in /  0mm 8 W/m2
05:10 52.6 °F /  11.4 °C 51.5 °F /  10.8 °C 30.04in /  1017.2hPa North 1mph /  1.6km/h 2mph /  3.2km/h 96% 0.00in /  0mm 15 W/m2
05:20 52.5 °F /  11.4 °C 51.4 °F /  10.8 °C 30.04in /  1017.2hPa WSW 1mph /  1.6km/h 3mph /  4.8km/h 96% 0.00in /  0mm 23 W/m2
05:30 52.3 °F /  11.3 °C 51.5 °F /  10.8 °C 30.04in /  1017.2hPa WNW 2mph /  3.2km/h 4mph /  6.4km/h 97% 0.00in /  0mm 32 W/m2
05:40 52.5 °F /  11.4 °C 52 °F /  11.1 °C 30.04in /  1017.2hPa WNW 1mph /  1.6km/h 5mph /  8km/h 98% 0.00in /  0mm 41 W/m2
05:50 52.6 °F /  11.4 °C 52.1 °F /  11.2 °C 30.04in /  1017.2hPa West 1mph /  1.6km/h 5mph /  8km/h 98% 0.00in /  0mm 53 W/m2
06:00 52.5 °F /  11.4 °C 52 °F /  11.1 °C 30.04in /  1017.2hPa West 3mph /  4.8km/h 5mph /  8km/h 98% 0.00in /  0mm 57 W/m2
06:10 52.7 °F /  11.5 °C 52.2 °F /  11.2 °C 30.04in /  1017.2hPa West 1mph /  1.6km/h 4mph /  6.4km/h 98% 0.00in /  0mm 119 W/m2
06:20 52.9 °F /  11.6 °C 52.3 °F /  11.3 °C 30.04in /  1017.2hPa Calm   2mph /  3.2km/h 98% 0.00in /  0mm 144 W/m2
06:30 53.1 °F /  11.7 °C 52.5 °F /  11.4 °C 30.04in /  1017.2hPa Calm   2mph /  3.2km/h 98% 0.00in /  0mm 171 W/m2
06:40 53.5 °F /  11.9 °C 53.2 °F /  11.8 °C 30.04in /  1017.2hPa Calm   1mph /  1.6km/h 99% 0.00in /  0mm 204 W/m2
06:50 54.1 °F /  12.3 °C 53.9 °F /  12.2 °C 30.04in /  1017.2hPa West 1mph /  1.6km/h 2mph /  3.2km/h 99% 0.00in /  0mm 231 W/m2
07:00 54.9 °F /  12.7 °C 54.6 °F /  12.6 °C 30.04in /  1017.2hPa Calm   5mph /  8km/h 99% 0.00in /  0mm 264 W/m2
07:10 55.6 °F /  13.1 °C 55.3 °F /  12.9 °C 30.03in /  1016.8hPa Calm   2mph /  3.2km/h 99% 0.00in /  0mm 298 W/m2
07:20 56.2 °F /  13.4 °C 55.9 °F /  13.3 °C 30.04in /  1017.2hPa Calm   1mph /  1.6km/h 99% 0.00in /  0mm 331 W/m2
07:30 57 °F /  13.9 °C 56.7 °F /  13.7 °C 30.04in /  1017.2hPa Calm   2mph /  3.2km/h 99% 0.00in /  0mm 360 W/m2
07:40 57.8 °F /  14.3 °C 57.5 °F /  14.2 °C 30.04in /  1017.2hPa SW 1mph /  1.6km/h 3mph /  4.8km/h 99% 0.00in /  0mm 393 W/m2
07:50 58.7 °F /  14.8 °C 58.1 °F /  14.5 °C 30.03in /  1016.8hPa SW 1mph /  1.6km/h 3mph /  4.8km/h 98% 0.00in /  0mm 426 W/m2
08:00 59.6 °F /  15.3 °C 59 °F /  15 °C 30.03in /  1016.8hPa West 1mph /  1.6km/h 2mph /  3.2km/h 98% 0.00in /  0mm 462 W/m2
Knjazevac, Serbia
Compliments of Weather Underground - 2 mb